Time;durP1;ratioP1;P1;durP2;ratioP2;P2;SDS_P1;SDS_P2;PMS_P1;PMS_P2;Temp;Humidity;BMP_temperature;BMP_pressure;BME280_temperature;BME280_humidity;BME280_pressure;Samples;Min_cycle;Max_cycle;Signal;HPM_P1;HPM_P2
2021/05/18 00:01:17;;;;;;;23.92;16.40;;;;;;;10.37;75.28;98547.05;1710756;83;20956;-62
2021/05/18 00:03:44;;;;;;;29.95;15.95;;;;;;;10.32;75.27;98549.12;1688137;84;21020;-62
2021/05/18 00:06:11;;;;;;;29.18;16.77;;;;;;;10.29;75.45;98547.55;1683968;84;20963;-63
2021/05/18 00:11:43;;;;;;;25.20;15.80;;;;;;;10.26;75.40;98550.32;1692024;84;20937;-63
2021/05/18 00:13:54;;;;;;;22.93;15.65;;;;;;;10.27;75.51;98550.71;1690079;83;21051;-63
2021/05/18 00:16:21;;;;;;;21.50;15.38;;;;;;;10.27;75.60;98544.19;1689721;83;21166;-63
2021/05/18 00:18:52;;;;;;;29.25;15.72;;;;;;;10.32;75.69;98542.12;1670678;84;20945;-63
2021/05/18 00:21:23;;;;;;;34.03;17.50;;;;;;;10.37;75.76;98540.05;1691425;84;21649;-62
2021/05/18 00:23:49;;;;;;;33.63;15.80;;;;;;;10.43;75.81;98540.95;1696930;84;21091;-62
2021/05/18 00:26:16;;;;;;;39.10;16.12;;;;;;;10.48;75.78;98548.02;1692322;84;20949;-63
2021/05/18 00:28:43;;;;;;;35.55;15.85;;;;;;;10.45;75.70;98556.05;1689982;83;21206;-63
2021/05/18 00:31:11;;;;;;;28.02;14.30;;;;;;;10.40;75.78;98559.90;1685583;84;20969;-62
2021/05/18 00:33:43;;;;;;;27.58;15.03;;;;;;;10.38;75.80;98561.77;1685958;84;20941;-63
2021/05/18 00:36:10;;;;;;;30.10;15.00;;;;;;;10.35;75.78;98565.41;1672234;84;20973;-63
2021/05/18 00:38:38;;;;;;;27.42;14.05;;;;;;;10.37;75.88;98562.71;1687678;84;21467;-63
2021/05/18 00:41:04;;;;;;;;;;;;;;;10.38;75.97;98565.20;1689205;84;21569;-63
2021/05/18 00:43:32;;;;;;;25.57;14.60;;;;;;;10.36;76.02;98567.06;1686551;84;20532;-63
2021/05/18 00:45:59;;;;;;;40.63;17.62;;;;;;;10.34;76.05;98570.27;1683502;84;20937;-62
2021/05/18 00:48:26;;;;;;;45.75;17.92;;;;;;;10.38;76.25;98576.95;1684962;84;21547;-62
2021/05/18 00:51:04;;;;;;;34.55;15.55;;;;;;;10.40;76.26;98569.86;1686300;84;20965;-63
2021/05/18 00:53:30;;;;;;;37.17;17.65;;;;;;;10.40;76.22;98565.95;1684942;84;22135;-63
2021/05/18 00:58:35;;;;;;;49.03;22.30;;;;;;;10.38;76.29;98573.03;1684250;84;21037;-63
2021/05/18 01:01:21;;;;;;;38.67;18.57;;;;;;;10.41;76.34;98571.52;1688805;84;20945;-63
2021/05/18 01:03:48;;;;;;;49.03;19.92;;;;;;;10.41;76.26;98572.83;1686130;84;21443;-63
2021/05/18 01:06:21;;;;;;;41.35;18.87;;;;;;;10.40;76.41;98578.99;1687843;84;21010;-63
2021/05/18 01:08:50;;;;;;;33.55;17.15;;;;;;;10.46;76.55;98575.98;1684129;84;20958;-62
2021/05/18 01:11:21;;;;;;;38.28;18.12;;;;;;;10.52;76.58;98579.48;1683756;84;20894;-63
2021/05/18 01:13:48;;;;;;;42.23;19.55;;;;;;;10.55;76.52;98582.84;1685756;84;20977;-63
2021/05/18 01:16:15;;;;;;;;;;;;;;;10.51;76.45;98581.74;1688752;84;20909;-63
2021/05/18 01:18:45;;;;;;;43.20;20.15;;;;;;;10.48;76.49;98583.25;1689061;84;21003;-63
2021/05/18 01:21:13;;;;;;;40.92;19.15;;;;;;;10.45;76.54;98588.67;1661226;84;20992;-63
2021/05/18 01:23:42;;;;;;;36.98;17.85;;;;;;;10.47;76.63;98582.03;1688849;83;21507;-63
2021/05/18 01:26:10;;;;;;;39.65;18.70;;;;;;;10.47;76.61;98580.28;1688069;84;20958;-63
2021/05/18 01:28:38;;;;;;;48.33;19.67;;;;;;;10.40;76.54;98584.22;1689698;84;20905;-63
2021/05/18 01:31:10;;;;;;;44.75;17.55;;;;;;;10.35;76.60;98584.14;1683391;84;20988;-63
2021/05/18 01:33:37;;;;;;;36.83;16.87;;;;;;;10.30;76.70;98580.52;1689310;84;20961;-63
2021/05/18 01:36:11;;;;;;;22.05;13.83;;;;;;;10.29;76.80;98581.46;1681428;84;21770;-63
2021/05/18 01:44:03;;;;;;;30.77;14.33;;;;;;;10.34;76.89;98589.84;1683365;84;21301;-63
2021/05/18 01:46:30;;;;;;;17.02;10.45;;;;;;;10.35;76.93;98587.58;1685777;84;21477;-63
2021/05/18 01:49:00;;;;;;;23.90;13.60;;;;;;;10.34;76.99;98596.36;1683766;84;20945;-63
2021/05/18 01:51:31;;;;;;;31.20;14.30;;;;;;;10.34;77.11;98589.84;1682299;84;21492;-63
2021/05/18 01:54:08;;;;;;;29.87;14.68;;;;;;;10.37;77.29;98592.24;1682424;84;20964;-63
2021/05/18 01:56:46;;;;;;;26.82;13.48;;;;;;;10.42;77.29;98592.79;1692036;84;21125;-63
2021/05/18 01:59:14;;;;;;;22.50;13.55;;;;;;;10.42;77.32;98592.79;1685708;84;20980;-63
2021/05/18 02:01:43;;;;;;;26.80;13.38;;;;;;;10.48;77.43;98594.16;1687996;84;20965;-63
2021/05/18 02:04:34;;;;;;;17.70;10.45;;;;;;;10.47;77.28;98592.47;1688093;84;20953;-63
2021/05/18 02:07:18;;;;;;;17.70;11.93;;;;;;;10.42;77.28;98590.17;1635513;85;21059;-63
2021/05/18 02:09:45;;;;;;;10.05;8.03;;;;;;;10.39;77.39;98599.52;1646612;85;21040;-63
2021/05/18 02:12:13;;;;;;;11.83;8.70;;;;;;;10.37;77.51;98596.63;1646566;85;20939;-63
2021/05/18 02:14:42;;;;;;;8.05;7.00;;;;;;;10.32;77.62;98594.30;1657364;85;21009;-63
2021/05/18 02:17:29;;;;;;;13.90;8.35;;;;;;;10.28;77.79;98595.45;1639658;85;23735;-63
2021/05/18 02:20:11;;;;;;;9.33;6.40;;;;;;;10.26;77.85;98598.58;1646754;85;21055;-63
2021/05/18 02:25:25;;;;;;;7.42;6.30;;;;;;;10.26;78.07;98602.03;1643106;85;21038;-63
2021/05/18 02:27:55;;;;;;;8.20;5.83;;;;;;;10.24;78.22;98604.36;1638626;85;21570;-63
2021/05/18 02:30:24;;;;;;;8.43;6.58;;;;;;;10.20;78.36;98606.33;1616601;86;20996;-63
2021/05/18 02:32:53;;;;;;;8.83;6.17;;;;;;;10.20;78.44;98605.50;1607329;87;21547;-63
2021/05/18 02:35:20;;;;;;;8.53;6.08;;;;;;;10.20;78.42;98612.86;1644866;85;21055;-63
2021/05/18 02:37:49;;;;;;;7.17;6.00;;;;;;;10.19;78.43;98615.08;1655262;85;20974;-63
2021/05/18 02:40:20;;;;;;;8.68;6.28;;;;;;;10.20;78.44;98616.77;1654345;85;20973;-63
2021/05/18 02:42:49;;;;;;;8.75;6.58;;;;;;;10.20;78.67;98615.94;1668773;84;21649;-63
2021/05/18 02:45:26;;;;;;;8.63;5.92;;;;;;;10.18;78.55;98623.02;1683363;84;21518;-63
2021/05/18 02:50:31;;;;;;;6.62;5.78;;;;;;;10.18;78.65;98630.37;1687540;84;20929;-63
2021/05/18 02:52:58;;;;;;;7.05;5.72;;;;;;;10.21;78.68;98634.08;1685448;84;20941;-63
2021/05/18 02:55:35;;;;;;;7.67;6.28;;;;;;;10.23;78.64;98636.61;1683138;84;20953;-63
2021/05/18 02:57:54;;;;;;;8.43;6.53;;;;;;;10.26;78.74;98633.80;1679623;84;21352;-63
2021/05/18 03:00:24;;;;;;;8.80;6.30;;;;;;;10.31;78.79;98644.83;1684147;84;21091;-63
2021/05/18 03:02:51;;;;;;;10.53;6.78;;;;;;;10.35;78.75;98644.98;1685713;84;21950;-63
2021/05/18 03:05:24;;;;;;;9.80;6.40;;;;;;;10.32;78.67;98649.09;1684509;84;20965;-63
2021/05/18 03:07:52;;;;;;;10.38;5.87;;;;;;;10.27;78.76;98645.94;1685050;84;21005;-63
2021/05/18 03:10:20;;;;;;;11.15;6.67;;;;;;;10.22;78.70;98638.39;1687115;84;21661;-63
2021/05/18 03:12:46;;;;;;;9.23;6.95;;;;;;;10.18;79.02;98638.66;1682031;84;21711;-63
2021/05/18 03:15:15;;;;;;;8.50;6.57;;;;;;;10.15;79.00;98638.86;1685734;84;21550;-63
2021/05/18 03:17:42;;;;;;;7.72;6.58;;;;;;;10.12;79.12;98641.66;1683344;84;20957;-63
2021/05/18 03:20:16;;;;;;;10.60;7.35;;;;;;;10.09;79.18;98646.13;1685019;84;21478;-63
2021/05/18 03:22:44;;;;;;;8.38;5.92;;;;;;;10.11;79.24;98647.80;1685475;84;21056;-63
2021/05/18 03:25:11;;;;;;;8.85;6.08;;;;;;;10.13;79.22;98648.55;1683932;84;21111;-63
2021/05/18 03:27:39;;;;;;;8.13;5.60;;;;;;;10.15;79.32;98651.91;1682236;84;20961;-63
2021/05/18 03:35:40;;;;;;;7.65;5.55;;;;;;;10.15;79.67;98657.95;1714129;82;20194;-63
2021/05/18 03:40:56;;;;;;;7.17;5.62;;;;;;;10.14;79.55;98661.50;1713393;82;20885;-63
2021/05/18 03:52:15;;;;;;;6.13;5.20;;;;;;;10.18;79.82;98664.75;1749999;81;20940;-63
2021/05/18 03:54:02;;;;;;;6.03;4.20;;;;;;;10.18;79.72;98666.05;1636303;83;20989;-63
2021/05/18 04:04:25;;;;;;;5.85;4.97;;;;;;;10.27;79.75;98679.85;1742813;80;21132;-63
2021/05/18 04:18:05;;;;;;;7.67;5.67;;;;;;;10.30;79.92;98684.88;1744574;81;20995;-63
2021/05/18 04:21:13;;;;;;;6.22;5.25;;;;;;;10.29;79.93;98685.34;1740704;81;20936;-63
2021/05/18 04:26:06;;;;;;;8.20;4.95;;;;;;;10.30;80.00;98683.09;1741636;81;20940;-63
2021/05/18 04:50:33;;;;;;;5.30;4.35;;;;;;;10.33;80.25;98692.51;1742766;81;20880;-63
2021/05/18 05:01:05;;;;;;;6.60;4.65;;;;;;;10.53;80.39;98693.89;1736031;81;21336;-63
2021/05/18 05:06:16;;;;;;;4.72;3.00;;;;;;;10.68;80.10;98697.28;1691243;83;20930;-63
2021/05/18 05:08:46;;;;;;;4.17;3.70;;;;;;;10.66;80.15;98698.67;1696140;83;20981;-63
2021/05/18 05:16:20;;;;;;;6.10;4.05;;;;;;;10.71;80.22;98699.70;1742732;81;20960;-63
2021/05/18 05:18:47;;;;;;;5.28;3.83;;;;;;;10.71;80.11;98699.22;1743723;81;20949;-63
2021/05/18 05:21:13;;;;;;;5.20;2.62;;;;;;;10.72;80.19;98700.05;1705369;81;20941;-63
2021/05/18 05:23:40;;;;;;;5.23;3.63;;;;;;;10.70;80.25;98709.78;1701041;83;21127;-63
2021/05/18 05:26:07;;;;;;;5.47;3.17;;;;;;;10.65;80.21;98703.54;1692243;83;20976;-63
2021/05/18 05:28:34;;;;;;;4.42;3.42;;;;;;;10.66;80.37;98701.76;1739139;81;21034;-63
2021/05/18 05:31:02;;;;;;;4.50;3.08;;;;;;;10.66;80.45;98700.45;1741395;81;20956;-63
2021/05/18 05:33:28;;;;;;;7.08;4.22;;;;;;;10.66;80.40;98704.37;1713423;81;20955;-63
2021/05/18 05:35:55;;;;;;;4.80;3.40;;;;;;;10.62;80.34;98701.59;1743104;80;21043;-62
2021/05/18 05:38:23;;;;;;;5.20;3.40;;;;;;;10.57;80.32;98701.05;1738049;81;20921;-63
2021/05/18 05:40:52;;;;;;;5.35;4.15;;;;;;;10.50;80.33;98709.27;1733750;81;20939;-63
2021/05/18 05:43:19;;;;;;;7.58;3.60;;;;;;;10.53;80.75;98710.38;1742299;81;21039;-63
2021/05/18 05:45:46;;;;;;;4.00;3.22;;;;;;;10.66;80.86;98706.98;1732519;80;20971;-62
2021/05/18 05:48:12;;;;;;;5.40;3.13;;;;;;;10.76;80.56;98710.69;1738442;80;20975;-63
2021/05/18 05:50:39;;;;;;;4.83;3.20;;;;;;;10.77;80.66;98709.74;1742102;81;21258;-63
2021/05/18 05:53:08;;;;;;;5.35;3.70;;;;;;;10.80;80.49;98713.46;1743535;81;21002;-63
2021/05/18 05:55:35;;;;;;;5.62;3.10;;;;;;;10.79;80.29;98712.27;1742796;80;21075;-63
2021/05/18 05:58:02;;;;;;;3.72;2.65;;;;;;;10.71;80.26;98716.19;1740163;80;21031;-63
2021/05/18 06:00:29;;;;;;;2.92;2.08;;;;;;;10.67;80.30;98720.39;1745162;80;20948;-62
2021/05/18 06:02:56;;;;;;;7.05;2.98;;;;;;;10.60;80.19;98716.04;1739138;80;20982;-62
2021/05/18 06:05:23;;;;;;;3.85;2.85;;;;;;;10.58;80.46;98720.52;1740118;81;21433;-62
2021/05/18 06:07:50;;;;;;;2.77;1.93;;;;;;;10.56;80.34;98721.54;1742072;81;20936;-62
2021/05/18 06:10:22;;;;;;;3.70;2.55;;;;;;;10.53;80.32;98722.13;1747707;80;21166;-62
2021/05/18 06:12:54;;;;;;;3.55;1.80;;;;;;;10.55;80.44;98732.92;1737434;81;21063;-62
2021/05/18 06:15:42;;;;;;;2.70;2.25;;;;;;;10.60;80.50;98732.17;1741511;81;20955;-62
2021/05/18 06:42:28;;;;;;;5.53;2.40;;;;;;;10.96;80.38;98715.93;1681400;84;20905;-63
2021/05/18 06:47:32;;;;;;;4.75;3.60;;;;;;;10.97;80.37;98724.95;1683437;84;20993;-63
2021/05/18 06:52:43;;;;;;;4.33;3.10;;;;;;;11.22;80.27;98739.04;1683912;82;21000;-63
2021/05/18 06:55:16;;;;;;;3.27;2.75;;;;;;;11.14;79.99;98738.70;1685933;84;21060;-63
2021/05/18 06:57:47;;;;;;;11.25;4.33;;;;;;;11.06;80.14;98735.75;1684148;82;20961;-63
2021/05/18 07:00:22;;;;;;;3.90;2.90;;;;;;;11.05;80.11;98731.47;1667340;84;20983;-62
2021/05/18 07:02:44;;;;;;;6.10;4.12;;;;;;;11.05;80.24;98738.83;1681624;82;20969;-62
2021/05/18 07:10:37;;;;;;;3.70;2.65;;;;;;;10.93;80.15;98739.16;1687229;82;21072;-63
2021/05/18 07:13:04;;;;;;;2.58;2.33;;;;;;;10.84;80.14;98747.59;1682394;84;21707;-63
2021/05/18 07:15:32;;;;;;;2.40;2.10;;;;;;;10.83;80.27;98749.81;1688720;82;21491;-63
2021/05/18 07:17:59;;;;;;;3.75;2.33;;;;;;;10.79;80.33;98747.05;1701930;83;21554;-63
2021/05/18 07:20:28;;;;;;;4.80;3.12;;;;;;;10.76;80.32;98747.24;1679922;84;24637;-63
2021/05/18 07:22:57;;;;;;;4.15;2.60;;;;;;;10.80;80.47;98757.84;1687124;82;21691;-64
2021/05/18 07:25:24;;;;;;;3.80;2.55;;;;;;;10.85;80.71;98755.79;1684473;84;21701;-64
2021/05/18 07:27:51;;;;;;;4.03;3.22;;;;;;;10.88;80.49;98746.45;1682800;84;20921;-64
2021/05/18 07:30:19;;;;;;;7.72;3.58;;;;;;;10.98;80.34;98755.38;1685665;84;20956;-64
2021/05/18 07:32:46;;;;;;;4.33;3.12;;;;;;;11.11;80.61;98758.50;1693584;83;20989;-64
2021/05/18 07:35:13;;;;;;;4.00;3.10;;;;;;;11.23;80.61;98756.41;1679749;83;21522;-63
2021/05/18 07:37:42;;;;;;;4.90;3.37;;;;;;;11.52;80.60;98730.13;1704736;83;21017;-62
2021/05/18 07:40:09;;;;;;;4.20;3.00;;;;;;;11.52;80.60;98730.13;1684942;83;21510;-62
2021/05/18 07:42:36;;;;;;;;;;;;;;;11.67;80.21;98736.92;1686921;83;21024;-63
2021/05/18 07:45:06;;;;;;;4.03;2.72;;;;;;;11.87;80.18;98759.14;1711385;83;20517;-63
2021/05/18 07:47:36;;;;;;;3.62;2.80;;;;;;;12.07;80.27;98761.70;1711162;83;20917;-64
2021/05/18 07:50:09;;;;;;;2.83;2.08;;;;;;;12.13;79.81;98761.30;1709771;82;20973;-64
2021/05/18 08:06:12;;;;;;;2.70;2.40;;;;;;;12.13;79.81;98765.23;1599327;88;21533;-63
2021/05/18 08:08:40;;;;;;;;;;;;;;;12.30;79.64;98764.06;1600392;88;21688;-63
2021/05/18 08:11:07;;;;;;;5.00;2.33;;;;;;;12.49;80.06;98763.59;1630394;86;20159;-63
2021/05/18 08:13:34;;;;;;;3.12;2.00;;;;;;;12.75;79.84;98765.21;1611361;86;21505;-63
2021/05/18 08:19:07;;;;;;;3.02;2.25;;;;;;;13.11;78.79;98766.13;1637088;86;20948;-63
2021/05/18 08:21:46;;;;;;;4.58;2.10;;;;;;;13.19;78.63;98771.65;1640739;86;21169;-63
2021/05/18 10:21:45;;;;;;;3.50;1.72;;;;;;;12.01;78.02;98780.44;1688825;84;20913;-63
2021/05/18 10:34:54;;;;;;;3.30;1.35;;;;;;;11.72;77.84;98792.37;1675699;84;20978;-63
2021/05/18 10:37:40;;;;;;;3.27;1.70;;;;;;;11.61;77.89;98795.69;1680276;84;20970;-63
2021/05/18 10:40:26;;;;;;;2.10;1.35;;;;;;;11.55;78.17;98799.19;1684874;82;21604;-62
2021/05/18 10:43:27;;;;;;;2.05;1.40;;;;;;;11.51;78.20;98794.64;1681670;84;20909;-62
2021/05/18 10:46:00;;;;;;;3.27;1.00;;;;;;;11.51;78.34;98805.09;1679784;83;20933;-63
2021/05/18 10:48:37;;;;;;;1.22;1.00;;;;;;;11.51;78.34;98805.09;1675014;84;21069;-63
2021/05/18 10:51:35;;;;;;;1.98;1.30;;;;;;;11.60;78.51;98808.88;1692181;82;26809;-63
2021/05/18 10:54:33;;;;;;;3.45;1.55;;;;;;;11.46;78.45;98806.34;1670243;83;20987;-62
2021/05/18 10:57:16;;;;;;;2.35;1.27;;;;;;;11.36;78.91;98806.91;1681493;84;21499;-63
2021/05/18 10:59:56;;;;;;;2.72;1.55;;;;;;;11.26;78.99;98804.55;1684765;84;20925;-64
2021/05/18 11:02:38;;;;;;;3.95;2.37;;;;;;;11.22;79.11;98812.20;1683855;82;21009;-63
2021/05/18 11:05:14;;;;;;;2.60;1.42;;;;;;;11.22;79.46;98817.42;1683021;82;20949;-63
2021/05/18 11:07:44;;;;;;;2.85;2.00;;;;;;;11.23;79.33;98819.13;1682486;84;21003;-63
2021/05/18 11:10:18;;;;;;;3.08;1.87;;;;;;;11.25;79.31;98817.23;1684323;83;20938;-63
2021/05/18 11:12:57;;;;;;;4.05;2.60;;;;;;;11.30;79.47;98819.08;1686840;84;20909;-63
2021/05/18 11:15:25;;;;;;;4.83;2.50;;;;;;;11.27;79.46;98829.73;1684515;84;21015;-63
2021/05/18 11:17:54;;;;;;;4.30;2.50;;;;;;;11.32;79.60;98825.05;1686205;84;21882;-63
2021/05/18 11:23:24;;;;;;;3.15;2.50;;;;;;;11.57;79.84;98830.84;1683462;84;20937;-63
2021/05/18 11:26:00;;;;;;;2.80;2.02;;;;;;;11.58;79.51;98837.73;1684814;84;20937;-63
2021/05/18 11:28:40;;;;;;;3.97;3.13;;;;;;;11.58;79.53;98840.81;1685187;84;21001;-63
2021/05/18 11:31:16;;;;;;;4.08;2.67;;;;;;;11.67;79.76;98837.59;1688885;84;20917;-62
2021/05/18 11:33:52;;;;;;;2.35;1.72;;;;;;;11.73;79.62;98846.33;1686095;82;21054;-63
2021/05/18 11:36:28;;;;;;;4.72;2.98;;;;;;;11.74;79.48;98842.80;1686041;84;20941;-63
2021/05/18 11:39:06;;;;;;;2.92;2.30;;;;;;;11.70;79.55;98849.16;1686848;84;21009;-63
2021/05/18 11:41:34;;;;;;;2.20;2.00;;;;;;;11.70;79.55;98849.16;1684392;82;20992;-63
2021/05/18 11:44:02;;;;;;;3.42;2.33;;;;;;;11.72;79.83;98845.97;1685096;84;21005;-63
2021/05/18 11:46:32;;;;;;;5.70;2.80;;;;;;;11.81;79.75;98845.83;1685637;84;22173;-63
2021/05/18 11:49:07;;;;;;;4.22;2.20;;;;;;;11.86;79.79;98841.17;1686953;84;21590;-64
2021/05/18 11:51:52;;;;;;;2.58;2.37;;;;;;;11.86;79.73;98836.77;1686353;83;20945;-63
2021/05/18 11:54:22;;;;;;;6.97;3.20;;;;;;;11.88;79.73;98839.78;1681487;84;21574;-64
2021/05/18 11:56:55;;;;;;;7.12;3.00;;;;;;;11.86;79.70;98818.47;1688151;84;20961;-63
2021/05/18 11:59:24;;;;;;;7.72;2.70;;;;;;;12.05;79.87;98840.79;1684427;84;20997;-64
2021/05/18 12:01:58;;;;;;;2.45;1.80;;;;;;;12.11;79.91;98844.30;1683467;82;20957;-64
2021/05/18 12:04:27;;;;;;;3.50;2.20;;;;;;;12.21;79.80;98836.20;1685210;82;21164;-64
2021/05/18 12:07:12;;;;;;;2.22;1.80;;;;;;;12.21;79.80;98836.20;1686105;83;20972;-63
2021/05/18 12:09:40;;;;;;;3.15;1.82;;;;;;;12.41;79.78;98857.56;1686987;84;20961;-63
2021/05/18 12:12:18;;;;;;;4.62;1.90;;;;;;;12.40;79.62;98855.86;1692963;83;21011;-64
2021/05/18 12:14:54;;;;;;;4.70;2.27;;;;;;;12.37;79.05;98852.98;1689763;82;20964;-63
2021/05/18 12:17:26;;;;;;;3.20;1.70;;;;;;;12.34;79.40;98857.59;1678060;84;21518;-63
2021/05/18 12:19:53;;;;;;;4.08;2.00;;;;;;;12.37;79.69;98858.70;1668789;84;20965;-63
2021/05/18 12:22:20;;;;;;;5.35;2.45;;;;;;;12.37;79.69;98858.70;1672031;84;20927;-64
2021/05/18 12:24:47;;;;;;;6.90;2.45;;;;;;;12.42;79.59;98857.44;1683105;84;21095;-63
2021/05/18 12:27:16;;;;;;;3.02;2.02;;;;;;;12.46;79.61;98863.29;1659934;84;20998;-63
2021/05/18 12:29:46;;;;;;;3.40;2.02;;;;;;;12.57;79.62;98863.39;1686698;82;20949;-64
2021/05/18 12:32:39;;;;;;;5.22;2.27;;;;;;;12.46;79.20;98852.82;1669836;84;20997;-63
2021/05/18 12:35:10;;;;;;;2.12;1.80;;;;;;;12.46;79.20;98852.82;1711368;82;20952;-63
2021/05/18 12:37:50;;;;;;;2.65;2.20;;;;;;;12.49;79.28;98863.94;1718447;82;21058;-64
2021/05/18 12:40:32;;;;;;;3.00;1.98;;;;;;;12.57;79.44;98863.87;1716679;82;21470;-63
2021/05/18 12:43:12;;;;;;;4.25;2.05;;;;;;;12.64;79.40;98871.20;1717688;82;20945;-63
2021/05/18 12:45:41;;;;;;;5.95;2.20;;;;;;;12.63;79.13;98868.23;1713306;82;21011;-63
2021/05/18 12:48:10;;;;;;;2.80;1.90;;;;;;;12.65;79.55;98870.72;1717040;82;21646;-64
2021/05/18 12:50:47;;;;;;;2.70;2.20;;;;;;;12.72;79.52;98870.20;1717366;82;21081;-63
2021/05/18 12:53:26;;;;;;;3.47;2.15;;;;;;;12.73;79.24;98871.86;1715379;82;20928;-63
2021/05/18 12:55:54;;;;;;;4.22;1.90;;;;;;;12.65;78.99;98871.55;1719236;82;20921;-63
2021/05/18 12:58:35;;;;;;;3.33;2.30;;;;;;;12.57;79.30;98872.55;1718503;82;20998;-63
2021/05/18 13:01:13;;;;;;;4.10;2.25;;;;;;;12.57;79.39;98873.86;1719187;82;20933;-63
2021/05/18 13:03:42;;;;;;;2.70;2.15;;;;;;;12.54;79.40;98868.84;1719101;82;21047;-63
2021/05/18 13:06:10;;;;;;;4.62;2.27;;;;;;;12.52;79.62;98865.52;1722559;82;20979;-63
2021/05/18 13:08:38;;;;;;;;;;;;;;;12.58;79.61;98872.94;1712392;82;21056;-63
2021/05/18 13:13:56;;;;;;;3.90;2.83;;;;;;;12.60;79.65;98869.72;1715961;82;20985;-63
2021/05/18 13:16:26;;;;;;;4.45;2.75;;;;;;;12.56;79.52;98864.34;1713719;82;21001;-63
2021/05/18 13:19:09;;;;;;;5.17;2.50;;;;;;;12.62;79.61;98870.46;1675076;82;20934;-63
2021/05/18 13:21:54;;;;;;;3.85;2.87;;;;;;;12.63;79.50;98876.53;1715432;82;21016;-63
2021/05/18 13:27:07;;;;;;;3.10;2.80;;;;;;;12.46;79.67;98865.91;1732521;81;20986;-63
2021/05/18 13:29:36;;;;;;;4.92;3.10;;;;;;;12.49;79.95;98864.39;1742466;81;21146;-63
2021/05/18 13:32:05;;;;;;;5.70;3.20;;;;;;;12.54;80.05;98866.22;1692488;82;21597;-63
2021/05/18 13:34:32;;;;;;;4.10;2.85;;;;;;;12.50;79.50;98870.02;1689095;82;20953;-63
2021/05/18 13:36:59;;;;;;;4.87;3.12;;;;;;;12.46;79.63;98863.29;1683266;84;21511;-63
2021/05/18 13:39:26;;;;;;;5.67;3.13;;;;;;;12.38;79.62;98865.59;1679224;84;21457;-63
2021/05/18 13:41:53;;;;;;;3.30;2.95;;;;;;;12.38;79.91;98865.59;1674631;84;21205;-63
2021/05/18 13:44:20;;;;;;;3.80;3.10;;;;;;;12.34;79.72;98871.99;1681692;84;20973;-63
2021/05/18 13:46:47;;;;;;;4.87;2.85;;;;;;;12.36;79.76;98865.72;1680835;82;21025;-63
2021/05/18 13:49:15;;;;;;;3.70;2.65;;;;;;;12.45;79.91;98864.25;1702066;83;21030;-62
2021/05/18 13:51:43;;;;;;;3.75;3.00;;;;;;;12.52;79.69;98865.03;1708352;83;21086;-63
2021/05/18 13:54:11;;;;;;;5.08;3.25;;;;;;;12.48;79.46;98864.86;1680658;82;21020;-63
2021/05/18 13:56:41;;;;;;;5.03;2.92;;;;;;;12.45;79.46;98864.25;1682140;84;20952;-63
2021/05/18 13:59:09;;;;;;;5.53;3.35;;;;;;;12.46;79.60;98868.53;1678025;83;21578;-63
2021/05/18 14:01:35;;;;;;;4.30;3.02;;;;;;;12.41;79.14;98871.48;1685532;82;20958;-63
2021/05/18 14:04:02;;;;;;;5.47;3.12;;;;;;;12.43;79.63;98871.36;1688233;84;20957;-63
2021/05/18 14:06:30;;;;;;;4.65;3.02;;;;;;;12.44;79.35;98870.44;1680146;82;21018;-62
2021/05/18 14:08:57;;;;;;;3.45;3.10;;;;;;;12.40;79.44;98870.27;1685189;82;20957;-63
2021/05/18 14:11:24;;;;;;;3.98;2.80;;;;;;;12.38;79.57;98876.06;1679114;83;21568;-63
2021/05/18 14:13:53;;;;;;;3.87;2.62;;;;;;;12.37;79.45;98880.47;1685476;84;20997;-63
2021/05/18 14:16:22;;;;;;;4.90;3.20;;;;;;;12.34;79.40;98877.23;1685084;84;21045;-63
2021/05/18 14:18:54;;;;;;;5.03;3.22;;;;;;;12.37;79.41;98879.64;1679669;83;21800;-63
2021/05/18 14:21:22;;;;;;;6.72;2.80;;;;;;;12.35;79.24;98874.52;1687383;84;21056;-63
2021/05/18 14:26:29;;;;;;;3.67;2.77;;;;;;;12.36;79.37;98870.12;1680755;84;21016;-63
2021/05/18 14:28:56;;;;;;;;;;;;;;;12.48;79.57;98871.89;1686358;84;20981;-63
2021/05/18 14:31:23;;;;;;;3.70;2.95;;;;;;;12.53;79.39;98880.27;1683173;82;21082;-63
2021/05/18 14:33:50;;;;;;;;;;;;;;;12.54;79.38;98881.94;1687145;84;20925;-63
2021/05/18 14:36:17;;;;;;;3.92;2.65;;;;;;;12.67;79.62;98885.39;1681474;84;20208;-63
2021/05/18 14:38:46;;;;;;;4.33;2.70;;;;;;;12.74;79.14;98889.27;1682908;83;21492;-63
2021/05/18 14:56:50;;;;;;;4.05;2.95;;;;;;;12.51;78.91;98910.95;1689792;84;21049;-63
2021/05/18 14:59:17;;;;;;;5.00;2.72;;;;;;;12.41;78.83;98915.16;1683814;82;21125;-63
2021/05/18 15:01:43;;;;;;;3.97;2.97;;;;;;;12.39;78.85;98914.41;1688865;83;20945;-63
2021/05/18 15:04:11;;;;;;;5.47;2.77;;;;;;;12.34;78.66;98913.88;1688935;84;20947;-62
2021/05/18 15:06:41;;;;;;;6.33;2.75;;;;;;;12.13;78.43;98898.68;1677982;82;20969;-63
2021/05/18 15:09:08;;;;;;;4.03;2.60;;;;;;;12.13;78.43;98898.68;1682096;84;21065;-62
2021/05/18 15:11:35;;;;;;;3.52;2.55;;;;;;;12.11;78.69;98908.41;1686432;82;20970;-62
2021/05/18 15:14:05;;;;;;;4.87;2.50;;;;;;;12.06;78.68;98907.86;1686014;84;21489;-62
2021/05/18 15:16:31;;;;;;;5.10;2.83;;;;;;;11.99;78.52;98911.84;1680599;84;20926;-62
2021/05/18 15:19:19;;;;;;;7.93;3.10;;;;;;;11.95;78.36;98912.97;1683875;83;21006;-62
2021/05/18 15:21:27;;;;;;;4.22;2.75;;;;;;;11.91;78.51;98919.35;1673516;84;21214;-60
2021/05/18 15:23:54;;;;;;;4.37;3.00;;;;;;;11.93;78.50;98919.63;1681555;83;20906;-62
2021/05/18 15:26:22;;;;;;;4.72;2.75;;;;;;;11.90;78.40;98922.41;1682531;84;20924;-62
2021/05/18 15:28:50;;;;;;;4.45;3.20;;;;;;;11.83;78.33;98933.73;1660922;84;21002;-63
2021/05/18 15:31:17;;;;;;;10.38;2.87;;;;;;;11.61;78.25;98905.50;1671561;83;21013;-63
2021/05/18 15:33:44;;;;;;;6.08;3.22;;;;;;;11.61;78.25;98905.50;1685419;84;20971;-62
2021/05/18 15:36:15;;;;;;;6.22;2.83;;;;;;;11.68;78.57;98921.66;1683741;82;20933;-63
2021/05/18 15:38:47;;;;;;;4.37;2.85;;;;;;;11.70;78.68;98917.14;1687650;84;21416;-62
2021/05/18 15:41:16;;;;;;;5.20;3.35;;;;;;;11.71;78.55;98913.61;1685991;84;20981;-63
2021/05/18 15:43:47;;;;;;;4.28;2.85;;;;;;;11.69;78.52;98915.48;1683026;82;21508;-63
2021/05/18 15:46:13;;;;;;;5.70;3.25;;;;;;;11.67;78.69;98913.42;1685053;84;20951;-63
2021/05/18 15:48:41;;;;;;;6.25;3.02;;;;;;;11.65;78.59;98916.63;1682338;83;20953;-63
2021/05/18 15:51:08;;;;;;;5.40;3.05;;;;;;;11.64;78.64;98916.23;1672398;84;20974;-63
2021/05/18 15:53:34;;;;;;;;;;;;;;;11.64;78.82;98918.85;1682764;84;20977;-60
2021/05/18 15:56:04;;;;;;;5.23;3.53;;;;;;;11.68;78.87;98913.81;1686448;82;20168;-61
2021/05/18 15:58:32;;;;;;;7.37;3.37;;;;;;;11.74;78.79;98923.87;1688355;84;21183;-60
2021/05/18 16:00:58;;;;;;;3.70;3.17;;;;;;;11.71;78.76;98920.63;1684217;83;20941;-61
2021/05/18 16:03:25;;;;;;;7.37;3.65;;;;;;;11.72;78.80;98923.12;1684258;84;20981;-61
2021/05/18 16:05:52;;;;;;;4.75;3.37;;;;;;;11.75;78.89;98926.84;1684938;84;21568;-61
2021/05/18 16:11:00;;;;;;;3.80;2.50;;;;;;;11.83;78.62;98925.05;1652813;83;21492;-61
2021/05/18 16:13:28;;;;;;;4.25;3.12;;;;;;;11.80;78.64;98925.25;1681493;82;21296;-61
2021/05/18 16:16:12;;;;;;;;;;;;;;;11.76;78.75;98922.00;1683658;82;20961;-61
2021/05/18 16:18:39;;;;;;;4.78;2.90;;;;;;;11.81;78.80;98927.75;1681125;83;21086;-61
2021/05/18 16:21:12;;;;;;;3.72;2.67;;;;;;;11.73;78.50;98923.95;1681501;82;21028;-61
2021/05/18 16:23:40;;;;;;;8.00;3.90;;;;;;;11.66;78.31;98924.83;1682829;83;21019;-61
2021/05/18 16:26:08;;;;;;;5.05;2.55;;;;;;;11.58;78.37;98929.71;1685242;84;21539;-62
2021/05/18 16:28:36;;;;;;;4.40;2.27;;;;;;;11.51;78.38;98924.05;1682945;83;20983;-61
2021/05/18 16:31:03;;;;;;;3.40;2.52;;;;;;;11.49;78.28;98936.84;1681494;82;21001;-62
2021/05/18 16:33:30;;;;;;;9.43;2.83;;;;;;;11.43;78.17;98928.45;1659722;84;21578;-61
2021/05/18 16:35:57;;;;;;;5.77;2.10;;;;;;;11.37;78.00;98930.14;1681787;82;21455;-61
2021/05/18 16:38:24;;;;;;;2.55;1.85;;;;;;;11.33;78.04;98929.95;1664679;84;20961;-61
2021/05/18 16:40:53;;;;;;;4.83;2.22;;;;;;;11.28;77.98;98932.01;1700225;83;20929;-61
2021/05/18 16:43:22;;;;;;;4.58;2.60;;;;;;;11.23;77.95;98939.33;1674935;81;21492;-61
2021/05/18 16:45:52;;;;;;;2.80;2.30;;;;;;;11.20;77.86;98946.02;1678755;82;20981;-61
2021/05/18 16:48:30;;;;;;;5.78;3.20;;;;;;;11.14;77.76;98942.48;1681532;84;21089;-61